createdAt,value
2017-09-01T00:00:55.686Z,19.56
2017-09-01T00:01:55.689Z,19.55
2017-09-01T00:02:55.061Z,19.56
2017-09-01T00:03:55.827Z,19.58
2017-09-01T00:04:55.850Z,19.62
2017-09-01T00:05:55.453Z,19.52
2017-09-01T00:06:55.468Z,19.59
2017-09-01T00:07:55.849Z,19.54
2017-09-01T00:08:55.857Z,19.64
2017-09-01T00:09:55.540Z,19.56
2017-09-01T00:10:55.668Z,19.58
2017-09-01T00:11:55.259Z,19.64
2017-09-01T00:12:55.992Z,19.56
2017-09-01T00:13:55.992Z,19.71
2017-09-01T00:14:55.967Z,19.49
2017-09-01T00:15:55.668Z,19.64
2017-09-01T00:17:08.449Z,19.59
2017-09-01T00:17:55.732Z,19.55
2017-09-01T00:18:55.752Z,19.69
2017-09-01T00:19:55.773Z,19.56
2017-09-01T00:20:56.128Z,19.56
2017-09-01T00:21:55.820Z,19.48
2017-09-01T00:22:55.893Z,19.56
2017-09-01T00:23:56.190Z,19.62
2017-09-01T00:24:55.882Z,19.56
2017-09-01T00:25:55.900Z,19.51
2017-09-01T00:26:56.258Z,19.54
2017-09-01T00:27:55.963Z,19.51
2017-09-01T00:28:55.973Z,19.56
2017-09-01T00:29:55.993Z,19.49
2017-09-01T00:30:56.341Z,19.54
2017-09-01T00:31:56.039Z,19.48
2017-09-01T00:32:56.061Z,19.56
2017-09-01T00:33:56.088Z,19.56
2017-09-01T00:34:56.107Z,19.51
2017-09-01T00:35:56.126Z,19.48
2017-09-01T00:36:56.154Z,19.52
2017-09-01T00:37:55.855Z,19.54
2017-09-01T00:38:56.519Z,19.41
2017-09-01T00:39:55.893Z,19.54
2017-09-01T00:40:56.562Z,19.54
2017-09-01T00:41:55.942Z,19.55
2017-09-01T00:42:56.291Z,19.51
2017-09-01T00:43:55.988Z,19.36
2017-09-01T00:44:56.331Z,19.49
2017-09-01T00:45:56.679Z,19.39
2017-09-01T00:46:56.709Z,19.48
2017-09-01T00:47:56.726Z,19.52
2017-09-01T00:48:56.421Z,19.4
2017-09-01T00:49:56.449Z,19.47
2017-09-01T00:50:56.818Z,19.39
2017-09-01T00:51:56.816Z,19.47
2017-09-01T00:52:56.512Z,19.47
2017-09-01T00:53:56.535Z,19.36
2017-09-01T00:54:56.879Z,19.37
2017-09-01T00:55:56.575Z,19.4
2017-09-01T00:56:56.919Z,19.45
2017-09-01T00:57:56.623Z,19.39
2017-09-01T00:58:56.642Z,19.41
2017-09-01T00:59:56.341Z,19.4
2017-09-01T01:00:56.691Z,19.36
2017-09-01T01:01:57.034Z,19.4
2017-09-01T01:02:56.410Z,19.4
2017-09-01T01:03:56.429Z,19.36
2017-09-01T01:04:57.105Z,19.44
2017-09-01T01:05:56.800Z,19.47
2017-09-01T01:06:56.831Z,19.36
2017-09-01T01:07:56.845Z,19.41
2017-09-01T01:08:57.188Z,19.4
2017-09-01T01:09:57.090Z,19.34
2017-09-01T01:10:56.910Z,19.45
2017-09-01T01:11:56.935Z,19.41
2017-09-01T01:12:56.632Z,19.4
2017-09-01T01:13:57.299Z,19.3
2017-09-01T01:14:57.322Z,19.45
2017-09-01T01:15:57.022Z,19.36
2017-09-01T01:16:57.046Z,19.41
2017-09-01T01:17:57.571Z,19.37
2017-09-01T01:18:57.320Z,19.33
2017-09-01T01:19:57.319Z,19.4
2017-09-01T01:20:57.331Z,19.29
2017-09-01T01:21:57.004Z,19.3
2017-09-01T01:22:57.368Z,19.31
2017-09-01T01:23:57.200Z,19.36
2017-09-01T01:24:57.222Z,19.34
2017-09-01T01:25:57.691Z,19.27
2017-09-01T01:26:57.271Z,19.3
2017-09-01T01:27:57.297Z,19.24
2017-09-01T01:28:57.727Z,19.24
2017-09-01T01:29:57.736Z,19.26
2017-09-01T01:30:57.735Z,19.29
2017-09-01T01:31:57.382Z,19.26
2017-09-01T01:32:57.401Z,19.27
2017-09-01T01:33:57.416Z,19.27
2017-09-01T01:34:57.844Z,19.3
2017-09-01T01:35:57.552Z,19.33
2017-09-01T01:36:57.878Z,19.24
2017-09-01T01:37:57.894Z,19.31
2017-09-01T01:38:57.877Z,19.27
2017-09-01T01:39:57.574Z,19.24
2017-09-01T01:40:57.574Z,19.21
2017-09-01T01:41:57.922Z,19.19
2017-09-01T01:42:57.301Z,19.18
2017-09-01T01:43:57.740Z,19.19
2017-09-01T01:44:57.341Z,19.21
2017-09-01T01:45:58.027Z,19.24
2017-09-01T01:46:57.383Z,19.27
2017-09-01T01:47:57.407Z,19.12
2017-09-01T01:48:57.428Z,19.14
2017-09-01T01:49:57.555Z,19.21
2017-09-01T01:50:57.881Z,19.15
2017-09-01T01:51:57.581Z,19.19
2017-09-01T01:52:58.166Z,19.24
2017-09-01T01:53:57.587Z,19.04
2017-09-01T01:54:58.212Z,19.14
2017-09-01T01:55:58.237Z,19.11
2017-09-01T01:56:57.994Z,19.16
2017-09-01T01:57:58.278Z,19.09
2017-09-01T01:58:57.743Z,19.15
2017-09-01T01:59:58.324Z,19.08
2017-09-01T02:00:58.348Z,19.11
2017-09-01T02:01:58.370Z,19.09
2017-09-01T02:02:58.392Z,19.12
2017-09-01T02:03:58.090Z,19.04
2017-09-01T02:04:58.436Z,19.04
2017-09-01T02:05:58.129Z,19.11
2017-09-01T02:06:58.152Z,19.02
2017-09-01T02:07:58.492Z,19.07
2017-09-01T02:08:58.200Z,19.02
2017-09-01T02:09:58.543Z,19
2017-09-01T02:10:57.916Z,18.93
2017-09-01T02:11:58.263Z,19.04
2017-09-01T02:12:58.611Z,18.95
2017-09-01T02:13:58.310Z,19
2017-09-01T02:14:58.011Z,18.96
2017-09-01T02:15:58.352Z,18.9
2017-09-01T02:16:58.050Z,18.95
2017-09-01T02:17:58.394Z,18.93
2017-09-01T02:18:58.415Z,18.92
2017-09-01T02:19:58.762Z,19
2017-09-01T02:20:58.462Z,18.92
2017-09-01T02:21:58.807Z,18.9
2017-09-01T02:22:58.841Z,18.98
2017-09-01T02:23:58.853Z,18.99
2017-09-01T02:24:58.549Z,18.95
2017-09-01T02:25:58.571Z,18.93
2017-09-01T02:26:58.604Z,18.86
2017-09-01T02:27:58.618Z,18.96
2017-09-01T02:28:58.970Z,18.92
2017-09-01T02:29:58.662Z,18.93
2017-09-01T02:30:58.689Z,18.9
2017-09-01T02:31:59.021Z,18.96
2017-09-01T02:32:58.721Z,18.98
2017-09-01T02:33:58.752Z,18.88
2017-09-01T02:34:59.202Z,18.9
2017-09-01T02:35:58.890Z,18.92
2017-09-01T02:36:58.581Z,18.92
2017-09-01T02:37:59.052Z,18.93
2017-09-01T02:38:59.057Z,18.9
2017-09-01T02:39:59.066Z,18.89
2017-09-01T02:40:59.063Z,18.92
2017-09-01T02:41:58.951Z,18.95
2017-09-01T02:42:58.753Z,18.9
2017-09-01T02:43:59.016Z,18.96
2017-09-01T02:44:59.193Z,18.92
2017-09-01T02:45:59.007Z,18.81
2017-09-01T02:46:59.360Z,18.9
2017-09-01T02:47:59.375Z,18.9
2017-09-01T02:48:59.081Z,18.9
2017-09-01T02:49:59.101Z,18.88
2017-09-01T02:50:59.445Z,18.88
2017-09-01T02:51:58.896Z,18.96
2017-09-01T02:52:59.482Z,18.86
2017-09-01T02:53:59.512Z,18.8
2017-09-01T02:54:58.954Z,18.83
2017-09-01T02:55:59.552Z,18.86
2017-09-01T02:56:59.574Z,18.81
2017-09-01T02:57:59.275Z,18.84
2017-09-01T02:58:58.972Z,18.77
2017-09-01T02:59:59.668Z,18.86
2017-09-01T03:00:59.453Z,18.84
2017-09-01T03:01:59.452Z,18.75
2017-09-01T03:02:59.479Z,18.77
2017-09-01T03:03:59.839Z,18.75
2017-09-01T03:04:59.786Z,18.8
2017-09-01T03:05:59.484Z,18.78
2017-09-01T03:06:59.484Z,18.74
2017-09-01T03:07:59.829Z,18.74
2017-09-01T03:08:59.614Z,18.8
2017-09-01T03:09:59.652Z,18.77
2017-09-01T03:10:59.877Z,18.78
2017-09-01T03:11:59.648Z,18.73
2017-09-01T03:12:59.278Z,18.73
2017-09-01T03:13:59.303Z,18.78
2017-09-01T03:14:59.649Z,18.73
2017-09-01T03:15:59.673Z,18.75
2017-09-01T03:16:59.685Z,18.75
2017-09-01T03:17:59.711Z,18.78
2017-09-01T03:18:59.734Z,18.71
2017-09-01T03:19:59.755Z,18.71
2017-09-01T03:21:00.114Z,18.71
2017-09-01T03:22:00.146Z,18.7
2017-09-01T03:23:00.174Z,18.74
2017-09-01T03:24:00.167Z,18.75
2017-09-01T03:25:00.184Z,18.65
2017-09-01T03:26:00.210Z,18.74
2017-09-01T03:26:59.911Z,18.68
2017-09-01T03:28:00.260Z,18.73
2017-09-01T03:28:59.960Z,18.77
2017-09-01T03:29:59.653Z,18.73
2017-09-01T03:31:00.322Z,18.7
2017-09-01T03:32:00.029Z,18.71
2017-09-01T03:33:00.038Z,18.62
2017-09-01T03:34:00.061Z,18.63
2017-09-01T03:34:59.759Z,18.58
2017-09-01T03:35:59.781Z,18.65
2017-09-01T03:36:59.803Z,18.66
2017-09-01T03:38:00.158Z,18.6
2017-09-01T03:39:00.170Z,18.63
2017-09-01T03:40:00.320Z,18.62
2017-09-01T03:41:00.301Z,18.6
2017-09-01T03:42:00.622Z,18.63
2017-09-01T03:43:00.649Z,18.6
2017-09-01T03:44:00.660Z,18.66
2017-09-01T03:45:00.715Z,18.66
2017-09-01T03:46:00.328Z,18.63
2017-09-01T03:47:00.683Z,18.66
2017-09-01T03:48:00.040Z,18.59
2017-09-01T03:49:00.392Z,18.56
2017-09-01T03:50:00.824Z,18.66
2017-09-01T03:51:00.429Z,18.56
2017-09-01T03:52:00.127Z,18.63
2017-09-01T03:53:00.951Z,18.6
2017-09-01T03:54:00.179Z,18.58
2017-09-01T03:55:00.192Z,18.6
2017-09-01T03:56:00.537Z,18.59
2017-09-01T03:57:00.892Z,18.63
2017-09-01T03:58:00.584Z,18.56
2017-09-01T03:59:00.942Z,18.49
2017-09-01T04:00:00.632Z,18.59
2017-09-01T04:01:00.330Z,18.53
2017-09-01T04:02:00.670Z,18.59
2017-09-01T04:03:00.802Z,18.6
2017-09-01T04:04:01.037Z,18.55
2017-09-01T04:05:00.734Z,18.59
2017-09-01T04:06:00.757Z,18.58
2017-09-01T04:07:01.101Z,18.45
2017-09-01T04:08:00.813Z,18.49
2017-09-01T04:09:01.147Z,18.53
2017-09-01T04:10:00.520Z,18.52
2017-09-01T04:11:01.192Z,18.47
2017-09-01T04:12:00.883Z,18.55
2017-09-01T04:13:00.906Z,18.5
2017-09-01T04:14:00.936Z,18.47
2017-09-01T04:15:01.270Z,18.47
2017-09-01T04:16:01.293Z,18.49
2017-09-01T04:17:01.524Z,18.45
2017-09-01T04:18:00.691Z,18.5
2017-09-01T04:19:00.715Z,18.45
2017-09-01T04:20:01.069Z,18.47
2017-09-01T04:21:00.758Z,18.44
2017-09-01T04:22:01.106Z,18.4
2017-09-01T04:23:01.445Z,18.37
2017-09-01T04:24:00.834Z,18.35
2017-09-01T04:25:01.164Z,18.35
2017-09-01T04:26:01.522Z,18.38
2017-09-01T04:27:01.530Z,18.4
2017-09-01T04:28:01.236Z,18.41
2017-09-01T04:29:01.248Z,18.29
2017-09-01T04:30:01.599Z,18.31
2017-09-01T04:31:01.294Z,18.35
2017-09-01T04:32:01.634Z,18.34
2017-09-01T04:33:01.017Z,18.29
2017-09-01T04:34:01.360Z,18.35
2017-09-01T04:35:01.380Z,18.35
2017-09-01T04:36:01.730Z,18.31
2017-09-01T04:37:01.430Z,18.34
2017-09-01T04:38:01.452Z,18.33
2017-09-01T04:39:01.802Z,18.31
2017-09-01T04:40:01.810Z,18.25
2017-09-01T04:41:01.834Z,18.31
2017-09-01T04:42:01.233Z,18.31
2017-09-01T04:43:01.894Z,18.19
2017-09-01T04:44:01.583Z,18.31
2017-09-01T04:45:01.600Z,18.19
2017-09-01T04:46:01.620Z,18.19
2017-09-01T04:47:01.646Z,18.23
2017-09-01T04:48:01.663Z,18.25
2017-09-01T04:49:02.027Z,18.22
2017-09-01T04:50:02.037Z,18.26
2017-09-01T04:51:02.059Z,18.2
2017-09-01T04:52:02.075Z,18.2
2017-09-01T04:53:01.809Z,18.22
2017-09-01T04:54:01.791Z,18.2
2017-09-01T04:55:02.140Z,18.22
2017-09-01T04:56:02.346Z,18.2
2017-09-01T04:57:01.727Z,18.2
2017-09-01T04:58:02.366Z,18.19
2017-09-01T04:59:02.041Z,18.16
2017-09-01T05:00:02.039Z,18.22
2017-09-01T05:01:02.044Z,18.2
2017-09-01T05:02:02.191Z,18.25
2017-09-01T05:03:02.503Z,18.2
2017-09-01T05:04:02.014Z,18.22
2017-09-01T05:05:02.362Z,18.18
2017-09-01T05:06:02.489Z,18.16
2017-09-01T05:07:02.515Z,18.16
2017-09-01T05:08:02.092Z,18.16
2017-09-01T05:09:01.797Z,18.19
2017-09-01T05:10:02.523Z,18.2
2017-09-01T05:11:02.519Z,18.22
2017-09-01T05:12:02.180Z,18.23
2017-09-01T05:13:02.632Z,18.16
2017-09-01T05:14:02.329Z,18.2
2017-09-01T05:15:02.639Z,18.2
2017-09-01T05:16:02.666Z,18.19
2017-09-01T05:17:02.521Z,18.2
2017-09-01T05:18:02.387Z,18.25
2017-09-01T05:19:02.684Z,18.16
2017-09-01T05:20:02.379Z,18.23
2017-09-01T05:21:02.522Z,18.28
2017-09-01T05:22:02.719Z,18.2
2017-09-01T05:23:02.445Z,18.23
2017-09-01T05:24:02.445Z,18.31
2017-09-01T05:25:02.268Z,18.33
2017-09-01T05:26:02.584Z,18.29
2017-09-01T05:27:02.825Z,18.29
2017-09-01T05:28:02.851Z,18.37
2017-09-01T05:29:02.877Z,18.38
2017-09-01T05:30:02.566Z,18.38
2017-09-01T05:31:02.921Z,18.41
2017-09-01T05:32:02.621Z,18.38
2017-09-01T05:33:02.965Z,18.41
2017-09-01T05:34:02.331Z,18.4
2017-09-01T05:35:03.002Z,18.45
2017-09-01T05:36:03.019Z,18.47
2017-09-01T05:37:02.399Z,18.45
2017-09-01T05:38:03.069Z,18.49
2017-09-01T05:39:02.762Z,18.5
2017-09-01T05:40:02.795Z,18.53
2017-09-01T05:41:02.808Z,18.56
2017-09-01T05:42:02.830Z,18.6
2017-09-01T05:43:03.285Z,18.62
2017-09-01T05:44:02.868Z,18.53
2017-09-01T05:45:03.320Z,18.66
2017-09-01T05:46:03.443Z,18.62
2017-09-01T05:47:02.937Z,18.66
2017-09-01T05:48:02.983Z,18.6
2017-09-01T05:49:03.305Z,18.74
2017-09-01T05:50:03.318Z,18.65
2017-09-01T05:51:03.022Z,18.73
2017-09-01T05:52:02.721Z,18.7
2017-09-01T05:53:03.066Z,18.75
2017-09-01T05:54:03.113Z,18.7
2017-09-01T05:55:03.107Z,18.78
2017-09-01T05:56:03.134Z,18.75
2017-09-01T05:57:02.825Z,18.77
2017-09-01T05:58:02.844Z,18.8
2017-09-01T05:59:03.195Z,18.86
2017-09-01T06:00:03.557Z,18.83
2017-09-01T06:01:03.561Z,18.8
2017-09-01T06:02:03.266Z,18.84
2017-09-01T06:03:03.276Z,18.86
2017-09-01T06:04:03.307Z,18.93
2017-09-01T06:05:02.999Z,18.84
2017-09-01T06:06:03.361Z,18.98
2017-09-01T06:07:03.790Z,18.9
2017-09-01T06:08:03.883Z,18.93
2017-09-01T06:09:03.519Z,18.98
2017-09-01T06:10:03.520Z,18.95
2017-09-01T06:11:03.973Z,19.07
2017-09-01T06:12:03.192Z,19.02
2017-09-01T06:13:03.986Z,19.04
2017-09-01T06:14:03.311Z,19.02
2017-09-01T06:15:03.985Z,19.14
2017-09-01T06:16:04.002Z,19.09
2017-09-01T06:17:03.980Z,19.19
2017-09-01T06:18:03.993Z,19.12
2017-09-01T06:19:03.855Z,19.24
2017-09-01T06:20:03.845Z,19.21
2017-09-01T06:21:04.060Z,19.15
2017-09-01T06:22:04.055Z,19.19
2017-09-01T06:23:03.846Z,19.21
2017-09-01T06:24:03.562Z,19.14
2017-09-01T06:25:03.827Z,19.24
2017-09-01T06:26:03.770Z,19.3
2017-09-01T06:27:03.804Z,19.26
2017-09-01T06:28:03.838Z,19.29
2017-09-01T06:29:03.548Z,19.33
2017-09-01T06:30:04.188Z,19.29
2017-09-01T06:31:03.887Z,19.3
2017-09-01T06:32:03.921Z,19.33
2017-09-01T06:33:03.928Z,19.3
2017-09-01T06:34:03.951Z,19.29
2017-09-01T06:35:04.299Z,19.36
2017-09-01T06:36:04.321Z,19.36
2017-09-01T06:37:04.340Z,19.37
2017-09-01T06:38:04.040Z,19.34
2017-09-01T06:39:03.740Z,19.36
2017-09-01T06:40:04.413Z,19.34
2017-09-01T06:41:03.778Z,19.4
2017-09-01T06:42:03.824Z,19.48
2017-09-01T06:43:04.471Z,19.41
2017-09-01T06:44:04.491Z,19.49
2017-09-01T06:45:04.526Z,19.4
2017-09-01T06:46:03.895Z,19.44
2017-09-01T06:47:03.912Z,19.49
2017-09-01T06:48:03.930Z,19.54
2017-09-01T06:49:04.294Z,19.52
2017-09-01T06:50:04.307Z,19.55
2017-09-01T06:51:04.325Z,19.54
2017-09-01T06:52:04.676Z,19.45
2017-09-01T06:53:04.054Z,19.58
2017-09-01T06:54:04.391Z,19.47
2017-09-01T06:55:04.424Z,19.7
2017-09-01T06:56:04.765Z,19.63
2017-09-01T06:57:04.460Z,19.58
2017-09-01T06:58:04.489Z,19.49
2017-09-01T06:59:04.837Z,19.62
2017-09-01T07:00:04.852Z,19.63
2017-09-01T07:01:04.540Z,19.63
2017-09-01T07:02:04.562Z,19.69
2017-09-01T07:03:04.915Z,19.58
2017-09-01T07:04:04.339Z,19.66
2017-09-01T07:05:04.964Z,19.64
2017-09-01T07:06:04.978Z,19.66
2017-09-01T07:07:04.996Z,19.66
2017-09-01T07:08:05.020Z,19.74
2017-09-01T07:09:04.716Z,19.74
2017-09-01T07:10:04.755Z,19.82
2017-09-01T07:11:04.892Z,19.76
2017-09-01T07:12:05.074Z,19.76
2017-09-01T07:13:05.227Z,19.76
2017-09-01T07:14:04.830Z,19.81
2017-09-01T07:15:05.263Z,19.86
2017-09-01T07:16:05.076Z,19.89
2017-09-01T07:17:05.310Z,19.91
2017-09-01T07:18:05.362Z,19.89
2017-09-01T07:19:04.941Z,19.96
2017-09-01T07:20:04.660Z,19.95
2017-09-01T07:21:04.984Z,19.92
2017-09-01T07:22:04.698Z,19.94
2017-09-01T07:23:05.059Z,19.88
2017-09-01T07:24:05.148Z,20.06
2017-09-01T07:25:05.445Z,20.09
2017-09-01T07:26:05.275Z,19.99
2017-09-01T07:27:04.812Z,20.02
2017-09-01T07:28:04.838Z,20.07
2017-09-01T07:29:05.167Z,20.18
2017-09-01T07:30:04.860Z,20.06
2017-09-01T07:31:04.889Z,20.13
2017-09-01T07:32:05.310Z,20.16
2017-09-01T07:33:05.260Z,20.25
2017-09-01T07:34:05.296Z,20.26
2017-09-01T07:35:05.304Z,20.31
2017-09-01T07:36:05.444Z,20.21
2017-09-01T07:37:05.021Z,20.31
2017-09-01T07:38:05.690Z,20.37
2017-09-01T07:39:05.712Z,20.4
2017-09-01T07:40:05.440Z,20.44
2017-09-01T07:41:05.431Z,20.44
2017-09-01T07:42:05.478Z,20.4
2017-09-01T07:43:05.473Z,20.5
2017-09-01T07:44:05.822Z,20.55
2017-09-01T07:45:05.851Z,20.62
2017-09-01T07:46:05.868Z,20.62
2017-09-01T07:47:05.892Z,20.66
2017-09-01T07:48:05.278Z,20.69
2017-09-01T07:49:05.289Z,20.69
2017-09-01T07:50:05.649Z,20.72
2017-09-01T07:51:05.659Z,20.81
2017-09-01T07:52:05.717Z,20.87
2017-09-01T07:53:06.230Z,20.84
2017-09-01T07:54:05.767Z,20.81
2017-09-01T07:55:05.426Z,20.96
2017-09-01T07:56:05.784Z,20.92
2017-09-01T07:57:05.800Z,20.95
2017-09-01T07:58:05.810Z,20.96
2017-09-01T07:59:05.842Z,20.99
2017-09-01T08:00:05.563Z,21.07
2017-09-01T08:01:05.880Z,21.05
2017-09-01T08:02:05.947Z,21.06
2017-09-01T08:03:06.248Z,21.07
2017-09-01T08:04:05.952Z,21.15
2017-09-01T08:05:06.300Z,21.14
2017-09-01T08:06:06.319Z,21.18
2017-09-01T08:07:06.022Z,21.2
2017-09-01T08:08:05.750Z,21.21
2017-09-01T08:09:06.066Z,21.32
2017-09-01T08:10:05.801Z,21.29
2017-09-01T08:11:06.445Z,21.25
2017-09-01T08:12:06.460Z,21.29
2017-09-01T08:13:06.174Z,21.29
2017-09-01T08:14:06.179Z,21.32
2017-09-01T08:15:06.201Z,21.27
2017-09-01T08:16:06.242Z,21.27
2017-09-01T08:17:05.936Z,21.25
2017-09-01T08:18:05.948Z,21.37
2017-09-01T08:19:06.396Z,21.39
2017-09-01T08:20:06.510Z,21.35
2017-09-01T08:21:06.346Z,21.37
2017-09-01T08:22:06.769Z,21.45
2017-09-01T08:23:06.462Z,21.48
2017-09-01T08:24:06.502Z,21.42
2017-09-01T08:25:06.505Z,21.48
2017-09-01T08:26:06.857Z,21.51
2017-09-01T08:27:06.644Z,21.6
2017-09-01T08:28:06.640Z,21.6
2017-09-01T08:29:06.544Z,21.54
2017-09-01T08:30:06.333Z,21.52
2017-09-01T08:31:06.903Z,21.52
2017-09-01T08:32:06.682Z,21.66
2017-09-01T08:33:06.612Z,21.6
2017-09-01T08:34:06.642Z,21.64
2017-09-01T08:35:06.341Z,21.73
2017-09-01T08:36:06.699Z,21.75
2017-09-01T08:37:06.717Z,21.8
2017-09-01T08:38:06.736Z,21.79
2017-09-01T08:39:06.758Z,21.79
2017-09-01T08:40:06.775Z,21.91
2017-09-01T08:41:06.479Z,21.95
2017-09-01T08:42:06.825Z,21.96
2017-09-01T08:43:06.848Z,22.02
2017-09-01T08:44:06.544Z,21.96
2017-09-01T08:45:07.219Z,22.02
2017-09-01T08:46:06.598Z,22.13
2017-09-01T08:47:06.946Z,22.26
2017-09-01T08:48:07.290Z,22.23
2017-09-01T08:49:06.671Z,22.28
2017-09-01T08:50:07.342Z,22.38
2017-09-01T08:51:07.044Z,22.35
2017-09-01T08:52:07.062Z,22.35
2017-09-01T08:53:07.079Z,22.36
2017-09-01T08:54:07.433Z,22.48
2017-09-01T08:55:07.128Z,22.47
2017-09-01T08:56:07.479Z,22.5
2017-09-01T08:57:06.852Z,22.54
2017-09-01T08:58:07.524Z,22.47
2017-09-01T08:59:07.223Z,22.5
2017-09-01T09:00:07.568Z,22.53
2017-09-01T09:01:07.272Z,22.59
2017-09-01T09:02:07.291Z,22.62
2017-09-01T09:03:07.319Z,22.66
2017-09-01T09:04:07.665Z,22.66
2017-09-01T09:05:07.371Z,22.69
2017-09-01T09:06:07.387Z,22.69
2017-09-01T09:07:07.411Z,22.72
2017-09-01T09:08:07.765Z,22.78
2017-09-01T09:09:07.776Z,22.8
2017-09-01T09:10:07.801Z,22.8
2017-09-01T09:11:07.509Z,22.84
2017-09-01T09:12:07.234Z,22.87
2017-09-01T09:13:07.888Z,22.81
2017-09-01T09:14:07.583Z,22.81
2017-09-01T09:15:07.933Z,22.84
2017-09-01T09:16:07.378Z,22.88
2017-09-01T09:17:07.991Z,22.83
2017-09-01T09:18:07.751Z,22.84
2017-09-01T09:19:08.023Z,22.81
2017-09-01T09:20:07.732Z,22.81
2017-09-01T09:21:08.074Z,22.98
2017-09-01T09:22:07.771Z,22.9
2017-09-01T09:23:08.122Z,22.91
2017-09-01T09:24:07.840Z,22.93
2017-09-01T09:25:07.848Z,22.85
2017-09-01T09:26:08.189Z,22.85
2017-09-01T09:27:08.216Z,22.91
2017-09-01T09:28:07.590Z,22.9
2017-09-01T09:29:07.942Z,22.9
2017-09-01T09:30:07.969Z,22.88
2017-09-01T09:31:08.321Z,22.94
2017-09-01T09:32:08.334Z,22.96
2017-09-01T09:33:08.032Z,22.96
2017-09-01T09:34:08.393Z,22.91
2017-09-01T09:35:08.080Z,22.99
2017-09-01T09:36:08.429Z,22.91
2017-09-01T09:37:08.460Z,22.99
2017-09-01T09:38:07.907Z,22.96
2017-09-01T09:39:07.851Z,22.93
2017-09-01T09:40:08.533Z,22.93
2017-09-01T09:41:08.550Z,22.91
2017-09-01T09:42:07.925Z,22.94
2017-09-01T09:43:08.274Z,22.96
2017-09-01T09:44:07.976Z,22.94
2017-09-01T09:45:08.004Z,22.9
2017-09-01T09:46:08.343Z,22.88
2017-09-01T09:47:08.047Z,22.9
2017-09-01T09:48:08.729Z,22.87
2017-09-01T09:49:08.418Z,22.88
2017-09-01T09:50:08.117Z,22.87
2017-09-01T09:51:08.796Z,22.93
2017-09-01T09:52:08.490Z,22.93
2017-09-01T09:53:08.890Z,22.96
2017-09-01T09:54:08.543Z,22.93
2017-09-01T09:55:08.244Z,22.94
2017-09-01T09:56:08.921Z,22.96
2017-09-01T09:57:08.628Z,22.93
2017-09-01T09:58:08.964Z,22.91
2017-09-01T09:59:08.679Z,23
2017-09-01T10:00:08.739Z,22.94
2017-09-01T10:01:08.710Z,22.99
2017-09-01T10:02:08.414Z,22.98
2017-09-01T10:03:08.434Z,23.02
2017-09-01T10:04:09.121Z,23.08
2017-09-01T10:05:08.902Z,23.17
2017-09-01T10:06:08.908Z,23.17
2017-09-01T10:07:09.270Z,23.02
2017-09-01T10:08:08.950Z,23.17
2017-09-01T10:09:09.288Z,23.13
2017-09-01T10:10:08.607Z,23.12
2017-09-01T10:11:09.279Z,23.03
2017-09-01T10:12:08.978Z,23.17
2017-09-01T10:13:09.096Z,23.13
2017-09-01T10:14:09.127Z,23.18
2017-09-01T10:15:09.128Z,23.2
2017-09-01T10:16:09.128Z,23.17
2017-09-01T10:17:08.777Z,23.2
2017-09-01T10:18:09.588Z,23.21
2017-09-01T10:19:09.684Z,23.21
2017-09-01T10:20:09.684Z,23.24
2017-09-01T10:21:09.689Z,23.24
2017-09-01T10:22:09.366Z,23.25
2017-09-01T10:23:09.379Z,23.23
2017-09-01T10:24:09.366Z,23.27
2017-09-01T10:25:09.633Z,23.18
2017-09-01T10:26:08.999Z,23.24
2017-09-01T10:27:09.344Z,23.27
2017-09-01T10:28:09.050Z,23.25
2017-09-01T10:29:09.076Z,23.34
2017-09-01T10:30:09.416Z,23.41
2017-09-01T10:31:09.766Z,23.28
2017-09-01T10:32:09.468Z,23.24
2017-09-01T10:33:09.934Z,23.23
2017-09-01T10:34:09.520Z,23.24
2017-09-01T10:35:09.662Z,23.28
2017-09-01T10:36:09.664Z,23.32
2017-09-01T10:37:10.112Z,23.28
2017-09-01T10:38:10.119Z,23.32
2017-09-01T10:39:09.462Z,23.18
2017-09-01T10:40:10.102Z,23.24
2017-09-01T10:41:09.793Z,23.15
2017-09-01T10:42:09.827Z,23.2
2017-09-01T10:43:09.833Z,23.23
2017-09-01T10:44:10.184Z,23.18
2017-09-01T10:45:09.854Z,23.23
2017-09-01T10:46:09.525Z,23.09
2017-09-01T10:47:10.258Z,23.12
2017-09-01T10:48:09.956Z,23.15
2017-09-01T10:49:09.563Z,23.09
2017-09-01T10:50:09.589Z,23.1
2017-09-01T10:51:09.961Z,23.15
2017-09-01T10:52:10.309Z,23.1
2017-09-01T10:53:10.092Z,23.09
2017-09-01T10:54:11.547Z,23.17
2017-09-01T10:55:10.036Z,23.06
2017-09-01T10:56:10.057Z,23.17
2017-09-01T10:57:10.089Z,23.06
2017-09-01T10:58:10.107Z,23.06
2017-09-01T10:59:10.129Z,23.13
2017-09-01T11:00:10.493Z,23.06
2017-09-01T11:01:09.857Z,23.08
2017-09-01T11:02:10.532Z,23.08
2017-09-01T11:03:10.558Z,23.08
2017-09-01T11:04:10.518Z,23.12
2017-09-01T11:05:10.279Z,23.13
2017-09-01T11:06:10.314Z,23.06
2017-09-01T11:07:10.651Z,23.13
2017-09-01T11:08:10.675Z,23.03
2017-09-01T11:09:10.385Z,23.06
2017-09-01T11:10:10.724Z,23.15
2017-09-01T11:11:10.752Z,23.09
2017-09-01T11:12:10.130Z,23.12
2017-09-01T11:13:10.803Z,23.1
2017-09-01T11:14:10.502Z,23.12
2017-09-01T11:15:10.540Z,23.21
2017-09-01T11:16:10.880Z,23.13
2017-09-01T11:17:10.573Z,23.17
2017-09-01T11:18:10.282Z,23.15
2017-09-01T11:19:10.954Z,23.18
2017-09-01T11:20:10.976Z,23.2
2017-09-01T11:21:10.674Z,23.09
2017-09-01T11:22:11.026Z,23.2
2017-09-01T11:23:10.403Z,23.23
2017-09-01T11:24:10.946Z,23.2
2017-09-01T11:25:10.456Z,23.18
2017-09-01T11:26:10.799Z,23.2
2017-09-01T11:27:10.823Z,23.15
2017-09-01T11:28:11.181Z,23.2
2017-09-01T11:29:10.870Z,23.18
2017-09-01T11:30:10.893Z,23.18
2017-09-01T11:31:10.923Z,23.23
2017-09-01T11:32:10.947Z,23.28
2017-09-01T11:33:10.980Z,23.13
2017-09-01T11:34:11.324Z,23.24
2017-09-01T11:35:11.024Z,23.27
2017-09-01T11:36:11.046Z,23.36
2017-09-01T11:37:11.400Z,23.25
2017-09-01T11:38:11.099Z,23.24
2017-09-01T11:39:11.113Z,23.23
2017-09-01T11:40:10.820Z,23.24
2017-09-01T11:41:11.489Z,23.25
2017-09-01T11:42:11.196Z,23.21
2017-09-01T11:43:11.544Z,23.24
2017-09-01T11:44:10.922Z,23.32
2017-09-01T11:45:11.290Z,23.28
2017-09-01T11:46:11.294Z,23.17
2017-09-01T11:47:11.639Z,23.25
2017-09-01T11:48:11.663Z,23.18
2017-09-01T11:49:11.048Z,23.28
2017-09-01T11:50:11.712Z,23.21
2017-09-01T11:51:11.741Z,23.31
2017-09-01T11:52:11.452Z,23.37
2017-09-01T11:53:11.466Z,23.23
2017-09-01T11:54:11.492Z,23.25
2017-09-01T11:55:11.835Z,23.36
2017-09-01T11:56:11.964Z,23.4
2017-09-01T11:57:11.990Z,23.28
2017-09-01T11:58:11.992Z,23.28
2017-09-01T11:59:11.615Z,23.24
2017-09-01T12:00:11.314Z,23.4
2017-09-01T12:01:12.096Z,23.32
2017-09-01T12:02:11.685Z,23.31
2017-09-01T12:03:11.393Z,23.43
2017-09-01T12:04:12.103Z,23.27
2017-09-01T12:05:11.440Z,23.36
2017-09-01T12:06:11.462Z,23.34
2017-09-01T12:07:11.911Z,23.4
2017-09-01T12:08:12.592Z,23.39
2017-09-01T12:09:12.086Z,23.37
2017-09-01T12:10:12.090Z,23.41
2017-09-01T12:11:11.913Z,23.39
2017-09-01T12:12:12.084Z,23.37
2017-09-01T12:13:12.397Z,23.37
2017-09-01T12:14:12.075Z,23.37
2017-09-01T12:15:11.687Z,23.39
2017-09-01T12:16:12.542Z,23.39
2017-09-01T12:17:12.546Z,23.36
2017-09-01T12:18:12.543Z,23.37
2017-09-01T12:19:12.516Z,23.37
2017-09-01T12:20:12.540Z,23.36
2017-09-01T12:21:12.551Z,23.37
2017-09-01T12:22:12.087Z,23.44
2017-09-01T12:23:12.294Z,23.46
2017-09-01T12:24:12.293Z,23.41
2017-09-01T12:25:12.619Z,23.4
2017-09-01T12:26:12.619Z,23.36
2017-09-01T12:27:12.727Z,23.37
2017-09-01T12:28:12.233Z,23.39
2017-09-01T12:29:12.360Z,23.39
2017-09-01T12:30:12.396Z,23.37
2017-09-01T12:31:12.728Z,23.4
2017-09-01T12:32:12.755Z,23.41
2017-09-01T12:33:12.546Z,23.31
2017-09-01T12:34:12.478Z,23.37
2017-09-01T12:35:12.602Z,23.34
2017-09-01T12:36:12.850Z,23.25
2017-09-01T12:37:12.555Z,23.39
2017-09-01T12:38:12.902Z,23.27
2017-09-01T12:39:12.604Z,23.25
2017-09-01T12:40:12.960Z,23.27
2017-09-01T12:41:12.661Z,23.28
2017-09-01T12:42:13.008Z,23.27
2017-09-01T12:43:12.708Z,23.27
2017-09-01T12:44:12.732Z,23.18
2017-09-01T12:45:13.078Z,23.27
2017-09-01T12:46:13.110Z,23.18
2017-09-01T12:47:13.133Z,23.34
2017-09-01T12:48:13.151Z,23.24
2017-09-01T12:49:13.180Z,23.21
2017-09-01T12:50:12.892Z,23.27
2017-09-01T12:51:13.231Z,23.28
2017-09-01T12:52:13.253Z,23.31
2017-09-01T12:53:12.950Z,23.31
2017-09-01T12:54:12.977Z,23.17
2017-09-01T12:55:13.325Z,23.13
2017-09-01T12:56:13.028Z,23.27
2017-09-01T12:57:13.052Z,23.21